createdAt,value
2018-07-06T00:00:33.442Z,1027.74
2018-07-06T00:01:33.438Z,1027.73
2018-07-06T00:02:33.436Z,1027.78
2018-07-06T00:03:33.433Z,1027.77
2018-07-06T00:04:33.429Z,1027.8
2018-07-06T00:05:33.427Z,1027.78
2018-07-06T00:06:33.428Z,1027.85
2018-07-06T00:07:33.422Z,1027.84
2018-07-06T00:08:33.420Z,1027.85
2018-07-06T00:09:33.425Z,1027.86
2018-07-06T00:10:33.415Z,1027.85
2018-07-06T00:11:33.413Z,1027.82
2018-07-06T00:12:33.412Z,1027.84
2018-07-06T00:13:33.406Z,1027.81
2018-07-06T00:14:33.406Z,1027.8
2018-07-06T00:15:33.403Z,1027.83
2018-07-06T00:16:33.397Z,1027.82
2018-07-06T00:17:33.395Z,1027.87
2018-07-06T00:18:33.393Z,1027.9
2018-07-06T00:19:33.389Z,1027.92
2018-07-06T00:20:33.386Z,1027.9
2018-07-06T00:21:33.384Z,1027.9
2018-07-06T00:22:33.382Z,1027.95
2018-07-06T00:23:33.378Z,1027.96
2018-07-06T00:24:33.376Z,1027.93
2018-07-06T00:25:33.374Z,1027.92
2018-07-06T00:26:33.370Z,1027.89
2018-07-06T00:27:33.367Z,1027.96
2018-07-06T00:28:33.364Z,1027.97
2018-07-06T00:29:33.362Z,1027.93
2018-07-06T00:30:33.358Z,1027.94
2018-07-06T00:31:33.355Z,1027.94
2018-07-06T00:32:33.353Z,1027.93
2018-07-06T00:33:33.350Z,1027.94
2018-07-06T00:34:33.347Z,1027.92
2018-07-06T00:35:33.349Z,1027.95
2018-07-06T00:36:33.341Z,1027.96
2018-07-06T00:37:33.338Z,1027.97
2018-07-06T00:38:33.335Z,1027.98
2018-07-06T00:39:33.332Z,1028.03
2018-07-06T00:40:33.335Z,1028.06
2018-07-06T00:41:33.327Z,1028.05
2018-07-06T00:42:33.323Z,1028.04
2018-07-06T00:43:33.320Z,1028.03
2018-07-06T00:44:33.324Z,1028.07
2018-07-06T00:45:33.317Z,1028.06
2018-07-06T00:46:33.316Z,1028.09
2018-07-06T00:47:33.309Z,1028.11
2018-07-06T00:48:33.314Z,1028.1
2018-07-06T00:49:33.303Z,1028.1
2018-07-06T00:50:33.300Z,1028.11
2018-07-06T00:51:33.298Z,1028.13
2018-07-06T00:52:33.297Z,1028.11
2018-07-06T00:53:33.291Z,1028.1
2018-07-06T00:54:33.288Z,1028.1
2018-07-06T00:55:33.284Z,1028.1
2018-07-06T00:56:33.281Z,1028.06
2018-07-06T00:57:33.278Z,1028.11
2018-07-06T00:58:33.275Z,1028.08
2018-07-06T00:59:33.272Z,1028.06
2018-07-06T01:00:33.269Z,1028.07
2018-07-06T01:01:33.344Z,1028.03
2018-07-06T01:02:33.270Z,1028.01
2018-07-06T01:03:33.259Z,1027.99
2018-07-06T01:04:33.257Z,1027.96
2018-07-06T01:05:33.254Z,1027.95
2018-07-06T01:06:33.250Z,1027.92
2018-07-06T01:07:33.247Z,1027.92
2018-07-06T01:08:33.245Z,1027.93
2018-07-06T01:09:33.242Z,1027.96
2018-07-06T01:10:33.237Z,1027.91
2018-07-06T01:11:33.235Z,1027.94
2018-07-06T01:12:33.232Z,1027.95
2018-07-06T01:13:33.230Z,1027.93
2018-07-06T01:14:33.226Z,1027.96
2018-07-06T01:15:33.224Z,1027.92
2018-07-06T01:16:33.220Z,1027.98
2018-07-06T01:17:33.215Z,1027.99
2018-07-06T01:18:33.215Z,1028
2018-07-06T01:19:33.210Z,1028.03
2018-07-06T01:20:33.208Z,1028.09
2018-07-06T01:21:33.206Z,1028.05
2018-07-06T01:22:33.202Z,1028.07
2018-07-06T01:23:33.198Z,1028.11
2018-07-06T01:24:33.196Z,1028.13
2018-07-06T01:25:33.192Z,1028.13
2018-07-06T01:26:33.190Z,1028.14
2018-07-06T01:27:33.188Z,1028.15
2018-07-06T01:28:33.182Z,1028.2
2018-07-06T01:29:33.180Z,1028.19
2018-07-06T01:30:33.178Z,1028.22
2018-07-06T01:31:33.175Z,1028.29
2018-07-06T01:32:33.172Z,1028.31
2018-07-06T01:33:33.168Z,1028.33
2018-07-06T01:34:33.415Z,1028.38
2018-07-06T01:35:33.163Z,1028.4
2018-07-06T01:36:33.159Z,1028.41
2018-07-06T01:37:33.156Z,1028.47
2018-07-06T01:38:33.153Z,1028.46
2018-07-06T01:39:33.148Z,1028.45
2018-07-06T01:40:33.146Z,1028.47
2018-07-06T01:41:33.143Z,1028.49
2018-07-06T01:42:33.140Z,1028.5
2018-07-06T01:43:33.137Z,1028.49
2018-07-06T01:44:33.133Z,1028.6
2018-07-06T01:45:33.131Z,1028.59
2018-07-06T01:46:33.128Z,1028.63
2018-07-06T01:47:33.123Z,1028.64
2018-07-06T01:48:33.121Z,1028.64
2018-07-06T01:49:33.118Z,1028.64
2018-07-06T01:50:33.114Z,1028.65
2018-07-06T01:51:33.111Z,1028.75
2018-07-06T01:52:33.107Z,1028.73
2018-07-06T01:53:33.106Z,1028.72
2018-07-06T01:54:33.102Z,1028.73
2018-07-06T01:55:33.097Z,1028.77
2018-07-06T01:56:33.094Z,1028.78
2018-07-06T01:57:33.091Z,1028.8
2018-07-06T01:58:33.087Z,1028.84
2018-07-06T01:59:33.083Z,1028.8
2018-07-06T02:00:33.081Z,1028.86
2018-07-06T02:01:33.077Z,1028.84
2018-07-06T02:02:33.073Z,1028.86
2018-07-06T02:03:33.070Z,1028.81
2018-07-06T02:04:33.066Z,1028.88
2018-07-06T02:05:33.063Z,1028.89
2018-07-06T02:06:33.059Z,1028.88
2018-07-06T02:07:33.056Z,1028.87
2018-07-06T02:08:33.053Z,1028.86
2018-07-06T02:09:33.048Z,1028.86
2018-07-06T02:10:33.049Z,1028.81
2018-07-06T02:11:33.042Z,1028.8
2018-07-06T02:12:33.039Z,1028.79
2018-07-06T02:13:33.033Z,1028.79
2018-07-06T02:14:33.031Z,1028.8
2018-07-06T02:15:33.026Z,1028.76
2018-07-06T02:16:33.025Z,1028.79
2018-07-06T02:17:33.019Z,1028.74
2018-07-06T02:18:33.016Z,1028.72
2018-07-06T02:19:33.012Z,1028.71
2018-07-06T02:20:33.011Z,1028.64
2018-07-06T02:21:33.008Z,1028.62
2018-07-06T02:22:33.002Z,1028.6
2018-07-06T02:23:32.997Z,1028.56
2018-07-06T02:24:32.993Z,1028.51
2018-07-06T02:25:32.990Z,1028.52
2018-07-06T02:26:32.990Z,1028.5
2018-07-06T02:27:32.982Z,1028.51
2018-07-06T02:28:32.979Z,1028.52
2018-07-06T02:29:32.976Z,1028.47
2018-07-06T02:30:32.974Z,1028.5
2018-07-06T02:31:32.969Z,1028.52
2018-07-06T02:32:32.966Z,1028.52
2018-07-06T02:33:32.962Z,1028.56
2018-07-06T02:34:32.957Z,1028.56
2018-07-06T02:35:32.956Z,1028.53
2018-07-06T02:36:32.950Z,1028.56
2018-07-06T02:37:32.946Z,1028.52
2018-07-06T02:38:32.942Z,1028.5
2018-07-06T02:39:32.940Z,1028.52
2018-07-06T02:40:32.936Z,1028.55
2018-07-06T02:41:32.933Z,1028.6
2018-07-06T02:42:32.930Z,1028.63
2018-07-06T02:43:32.926Z,1028.62
2018-07-06T02:44:32.921Z,1028.66
2018-07-06T02:45:32.918Z,1028.72
2018-07-06T02:46:32.914Z,1028.79
2018-07-06T02:47:32.915Z,1028.79
2018-07-06T02:48:32.908Z,1028.77
2018-07-06T02:49:32.904Z,1028.77
2018-07-06T02:50:32.902Z,1028.77
2018-07-06T02:51:32.898Z,1028.73
2018-07-06T02:52:32.893Z,1028.78
2018-07-06T02:53:32.889Z,1028.77
2018-07-06T02:54:32.885Z,1028.8
2018-07-06T02:55:32.885Z,1028.84
2018-07-06T02:56:32.955Z,1028.82
2018-07-06T02:57:32.875Z,1028.81
2018-07-06T02:58:32.871Z,1028.78
2018-07-06T02:59:32.868Z,1028.79
2018-07-06T03:00:32.864Z,1028.79
2018-07-06T03:01:32.861Z,1028.82
2018-07-06T03:02:32.857Z,1028.87
2018-07-06T03:03:32.852Z,1028.83
2018-07-06T03:04:32.849Z,1028.85
2018-07-06T03:05:32.846Z,1028.81
2018-07-06T03:06:32.844Z,1028.83
2018-07-06T03:07:32.843Z,1028.82
2018-07-06T03:08:32.834Z,1028.82
2018-07-06T03:09:32.830Z,1028.82
2018-07-06T03:10:32.828Z,1028.79
2018-07-06T03:11:32.823Z,1028.8
2018-07-06T03:12:32.822Z,1028.79
2018-07-06T03:13:32.816Z,1028.75
2018-07-06T03:14:32.812Z,1028.76
2018-07-06T03:15:32.812Z,1028.79
2018-07-06T03:16:32.806Z,1028.76
2018-07-06T03:17:32.801Z,1028.79
2018-07-06T03:18:32.798Z,1028.78
2018-07-06T03:19:32.794Z,1028.8
2018-07-06T03:20:32.791Z,1028.81
2018-07-06T03:21:32.787Z,1028.83
2018-07-06T03:22:32.783Z,1028.86
2018-07-06T03:23:32.778Z,1028.88
2018-07-06T03:24:32.776Z,1028.93
2018-07-06T03:25:32.772Z,1028.91
2018-07-06T03:26:32.769Z,1028.96
2018-07-06T03:27:32.764Z,1028.98
2018-07-06T03:28:33.031Z,1029.05
2018-07-06T03:29:32.757Z,1029.03
2018-07-06T03:30:32.754Z,1029.07
2018-07-06T03:31:32.751Z,1029.12
2018-07-06T03:32:32.747Z,1029.13
2018-07-06T03:33:32.742Z,1029.12
2018-07-06T03:34:32.740Z,1029.09
2018-07-06T03:35:32.737Z,1029.12
2018-07-06T03:36:32.732Z,1029.1
2018-07-06T03:37:32.734Z,1029.08
2018-07-06T03:38:32.725Z,1029.08
2018-07-06T03:39:32.722Z,1029.1
2018-07-06T03:40:32.717Z,1029.13
2018-07-06T03:41:32.714Z,1029.11
2018-07-06T03:42:32.711Z,1029.1
2018-07-06T03:43:32.708Z,1029.09
2018-07-06T03:44:32.703Z,1029.08
2018-07-06T03:45:32.700Z,1029.06
2018-07-06T03:46:32.701Z,1029.07
2018-07-06T03:47:32.692Z,1029.02
2018-07-06T03:48:32.688Z,1029.02
2018-07-06T03:49:32.685Z,1028.98
2018-07-06T03:50:32.683Z,1029.02
2018-07-06T03:51:32.682Z,1028.87
2018-07-06T03:52:32.678Z,1028.65
2018-07-06T03:53:32.673Z,1028.35
2018-07-06T03:54:32.668Z,1028.15
2018-07-06T03:55:32.671Z,1027.9
2018-07-06T03:56:32.663Z,1027.66
2018-07-06T03:57:32.659Z,1027.48
2018-07-06T03:58:32.656Z,1027.56
2018-07-06T03:59:32.653Z,1027.53
2018-07-06T04:00:32.651Z,1027.56
2018-07-06T04:01:32.649Z,1027.55
2018-07-06T04:02:32.645Z,1027.61
2018-07-06T04:03:32.643Z,1027.61
2018-07-06T04:04:32.640Z,1027.66
2018-07-06T04:05:32.641Z,1027.54
2018-07-06T04:06:32.635Z,1027.23
2018-07-06T04:07:32.637Z,1026.95
2018-07-06T04:08:32.631Z,1026.71
2018-07-06T04:09:32.628Z,1026.47
2018-07-06T04:10:32.627Z,1026.18
2018-07-06T04:11:32.627Z,1025.96
2018-07-06T04:12:32.636Z,1026.2
2018-07-06T04:13:32.623Z,1026.08
2018-07-06T04:14:32.622Z,1026.06
2018-07-06T04:15:32.623Z,1025.99
2018-07-06T04:16:32.619Z,1025.99
2018-07-06T04:17:32.619Z,1026.15
2018-07-06T04:18:32.621Z,1026.26
2018-07-06T04:19:32.624Z,1026.11
2018-07-06T04:20:32.618Z,1025.88
2018-07-06T04:21:32.619Z,1025.64
2018-07-06T04:22:32.619Z,1025.44
2018-07-06T04:23:32.619Z,1025.24
2018-07-06T04:24:32.621Z,1024.85
2018-07-06T04:25:32.624Z,1024.74
2018-07-06T04:26:32.686Z,1024.56
2018-07-06T04:27:32.623Z,1024.72
2018-07-06T04:28:32.624Z,1024.92
2018-07-06T04:29:32.627Z,1025.08
2018-07-06T04:30:32.629Z,1025.28
2018-07-06T04:31:32.631Z,1025.43
2018-07-06T04:32:32.633Z,1025.59
2018-07-06T04:33:32.636Z,1025.76
2018-07-06T04:34:32.638Z,1025.96
2018-07-06T04:35:32.640Z,1026.08
2018-07-06T04:36:32.642Z,1026.17
2018-07-06T04:37:32.645Z,1026.29
2018-07-06T04:38:32.646Z,1026.41
2018-07-06T04:39:32.648Z,1026.53
2018-07-06T04:40:32.651Z,1026.58
2018-07-06T04:41:32.904Z,1026.57
2018-07-06T04:42:32.654Z,1026.55
2018-07-06T04:43:32.656Z,1026.53
2018-07-06T04:44:32.659Z,1026.55
2018-07-06T04:45:32.660Z,1026.54
2018-07-06T04:46:32.662Z,1026.52
2018-07-06T04:47:32.663Z,1026.51
2018-07-06T04:48:32.664Z,1026.57
2018-07-06T04:49:32.665Z,1026.58
2018-07-06T04:50:32.667Z,1026.65
2018-07-06T04:51:32.669Z,1026.74
2018-07-06T04:52:32.675Z,1026.9
2018-07-06T04:53:32.670Z,1026.92
2018-07-06T04:54:32.671Z,1026.87
2018-07-06T04:55:32.672Z,1026.73
2018-07-06T04:56:32.674Z,1026.63
2018-07-06T04:57:32.674Z,1026.58
2018-07-06T04:58:32.675Z,1026.6
2018-07-06T04:59:32.676Z,1026.59
2018-07-06T05:00:32.676Z,1026.53
2018-07-06T05:01:32.677Z,1026.55
2018-07-06T05:02:32.679Z,1026.6
2018-07-06T05:03:32.679Z,1026.58
2018-07-06T05:04:32.680Z,1026.6
2018-07-06T05:05:32.679Z,1026.66
2018-07-06T05:06:32.681Z,1026.73
2018-07-06T05:07:32.683Z,1026.82
2018-07-06T05:08:32.681Z,1026.92
2018-07-06T05:09:32.683Z,1026.95
2018-07-06T05:10:32.683Z,1027
2018-07-06T05:11:32.693Z,1027.11
2018-07-06T05:12:32.933Z,1027.17
2018-07-06T05:13:32.684Z,1027.2
2018-07-06T05:14:32.683Z,1027.28
2018-07-06T05:15:32.684Z,1027.31
2018-07-06T05:16:32.736Z,1027.37
2018-07-06T05:17:32.684Z,1027.43
2018-07-06T05:18:32.684Z,1027.47
2018-07-06T05:19:32.684Z,1027.53
2018-07-06T05:20:32.682Z,1027.54
2018-07-06T05:21:32.684Z,1027.61
2018-07-06T05:22:32.720Z,1027.65
2018-07-06T05:23:32.682Z,1027.63
2018-07-06T05:24:32.699Z,1027.66
2018-07-06T05:25:32.682Z,1027.68
2018-07-06T05:26:32.680Z,1027.67
2018-07-06T05:27:32.681Z,1027.83
2018-07-06T05:28:32.679Z,1027.88
2018-07-06T05:29:32.696Z,1027.98
2018-07-06T05:30:32.679Z,1028.02
2018-07-06T05:31:32.684Z,1028.05
2018-07-06T05:32:32.678Z,1028.15
2018-07-06T05:33:32.676Z,1028.19
2018-07-06T05:34:32.675Z,1028.19
2018-07-06T05:35:32.676Z,1028.19
2018-07-06T05:36:32.673Z,1028.25
2018-07-06T05:37:32.672Z,1028.27
2018-07-06T05:38:32.670Z,1028.27
2018-07-06T05:39:32.670Z,1028.32
2018-07-06T05:40:32.668Z,1028.32
2018-07-06T05:41:32.666Z,1028.37
2018-07-06T05:42:32.666Z,1028.32
2018-07-06T05:43:32.949Z,1028.25
2018-07-06T05:44:32.661Z,1028.26
2018-07-06T05:45:32.664Z,1028.25
2018-07-06T05:46:32.660Z,1028.31
2018-07-06T05:47:32.659Z,1028.3
2018-07-06T05:48:32.656Z,1028.31
2018-07-06T05:49:32.655Z,1028.3
2018-07-06T05:50:32.654Z,1028.26
2018-07-06T05:51:32.652Z,1028.24
2018-07-06T05:52:32.652Z,1028.29
2018-07-06T05:53:32.649Z,1028.31
2018-07-06T05:54:32.648Z,1028.34
2018-07-06T05:55:32.645Z,1028.29
2018-07-06T05:56:32.644Z,1028.38
2018-07-06T05:57:32.643Z,1028.38
2018-07-06T05:58:32.641Z,1028.31
2018-07-06T05:59:32.641Z,1028.39
2018-07-06T06:00:32.638Z,1028.36
2018-07-06T06:01:32.638Z,1028.36
2018-07-06T06:02:32.636Z,1028.23
2018-07-06T06:03:32.639Z,1028.3
2018-07-06T06:04:32.668Z,1028.35
2018-07-06T06:05:32.633Z,1028.31
2018-07-06T06:06:32.631Z,1028.3
2018-07-06T06:07:32.628Z,1028.29
2018-07-06T06:08:32.626Z,1028.27
2018-07-06T06:09:32.624Z,1028.19
2018-07-06T06:10:32.623Z,1028.16
2018-07-06T06:11:32.621Z,1028.03
2018-07-06T06:12:32.620Z,1028.06
2018-07-06T06:13:32.618Z,1028.06
2018-07-06T06:14:32.616Z,1028.15
2018-07-06T06:15:32.619Z,1028.03
2018-07-06T06:16:32.615Z,1028.09
2018-07-06T06:17:32.613Z,1028.21
2018-07-06T06:18:32.754Z,1028.26
2018-07-06T06:19:32.609Z,1028.31
2018-07-06T06:20:32.608Z,1028.33
2018-07-06T06:21:32.607Z,1028.29
2018-07-06T06:22:32.605Z,1028.26
2018-07-06T06:23:32.604Z,1028.31
2018-07-06T06:24:32.602Z,1028.28
2018-07-06T06:25:32.601Z,1028.3
2018-07-06T06:26:32.600Z,1028.32
2018-07-06T06:27:32.603Z,1028.36
2018-07-06T06:28:32.597Z,1028.4
2018-07-06T06:29:32.595Z,1028.44
2018-07-06T06:30:32.600Z,1028.46
2018-07-06T06:31:32.593Z,1028.49
2018-07-06T06:32:32.591Z,1028.56
2018-07-06T06:33:32.619Z,1028.55
2018-07-06T06:34:32.589Z,1028.58
2018-07-06T06:35:32.587Z,1028.49
2018-07-06T06:36:32.588Z,1028.56
2018-07-06T06:37:32.590Z,1028.47
2018-07-06T06:38:32.583Z,1028.44
2018-07-06T06:39:32.698Z,1028.49
2018-07-06T06:40:32.579Z,1028.45
2018-07-06T06:41:32.578Z,1028.48
2018-07-06T06:42:32.577Z,1028.45
2018-07-06T06:43:32.579Z,1028.45
2018-07-06T06:44:32.574Z,1028.41
2018-07-06T06:45:32.573Z,1028.42
2018-07-06T06:46:32.588Z,1028.42
2018-07-06T06:47:32.569Z,1028.44
2018-07-06T06:48:32.568Z,1028.49
2018-07-06T06:49:32.567Z,1028.47
2018-07-06T06:50:32.565Z,1028.48
2018-07-06T06:51:32.563Z,1028.44
2018-07-06T06:52:32.562Z,1028.46
2018-07-06T06:53:32.562Z,1028.46
2018-07-06T06:54:32.563Z,1028.38
2018-07-06T06:55:32.569Z,1028.29
2018-07-06T06:56:32.558Z,1028.21
2018-07-06T06:57:32.554Z,1028.16
2018-07-06T06:58:32.553Z,1028.14
2018-07-06T06:59:32.553Z,1028.16
2018-07-06T07:00:32.569Z,1028.18
2018-07-06T07:01:32.549Z,1028.16
2018-07-06T07:02:32.550Z,1028.21
2018-07-06T07:03:32.548Z,1028.18
2018-07-06T07:04:32.551Z,1028.17
2018-07-06T07:05:32.546Z,1028.21
2018-07-06T07:06:32.546Z,1028.23
2018-07-06T07:07:32.643Z,1028.25
2018-07-06T07:08:32.544Z,1028.15
2018-07-06T07:09:32.542Z,1028.19
2018-07-06T07:10:32.542Z,1028.2
2018-07-06T07:11:32.540Z,1028.3
2018-07-06T07:12:32.538Z,1028.33
2018-07-06T07:13:32.539Z,1028.34
2018-07-06T07:14:32.547Z,1028.49
2018-07-06T07:15:32.536Z,1028.54
2018-07-06T07:16:32.539Z,1028.58
2018-07-06T07:17:32.534Z,1028.52
2018-07-06T07:18:32.533Z,1028.49
2018-07-06T07:19:32.531Z,1028.46
2018-07-06T07:20:32.530Z,1028.43
2018-07-06T07:21:32.530Z,1028.33
2018-07-06T07:22:32.528Z,1028.38
2018-07-06T07:23:32.538Z,1028.34
2018-07-06T07:24:32.527Z,1028.38
2018-07-06T07:25:32.528Z,1028.38
2018-07-06T07:26:32.526Z,1028.4
2018-07-06T07:27:32.526Z,1028.4
2018-07-06T07:28:32.522Z,1028.33
2018-07-06T07:29:32.521Z,1028.28
2018-07-06T07:30:32.522Z,1028.26
2018-07-06T07:31:32.519Z,1028.2
2018-07-06T07:32:32.517Z,1028.16
2018-07-06T07:33:32.517Z,1028.08
2018-07-06T07:34:32.516Z,1028.06
2018-07-06T07:35:32.515Z,1028.01
2018-07-06T07:36:32.515Z,1027.98
2018-07-06T07:37:32.516Z,1027.92
2018-07-06T07:38:32.512Z,1027.89
2018-07-06T07:39:32.512Z,1027.9
2018-07-06T07:40:32.514Z,1027.96
2018-07-06T07:41:32.511Z,1027.97
2018-07-06T07:42:32.510Z,1027.88
2018-07-06T07:43:32.512Z,1027.98
2018-07-06T07:44:32.512Z,1028.03
2018-07-06T07:45:32.507Z,1028.05
2018-07-06T07:46:32.587Z,1028.16
2018-07-06T07:47:32.507Z,1028.17
2018-07-06T07:48:32.505Z,1028.26
2018-07-06T07:49:32.505Z,1028.28
2018-07-06T07:50:32.504Z,1028.18
2018-07-06T07:51:32.505Z,1028.23
2018-07-06T07:52:32.505Z,1028.24
2018-07-06T07:53:32.502Z,1028.25
2018-07-06T07:54:32.581Z,1028.21
2018-07-06T07:55:32.502Z,1028.24
2018-07-06T07:56:32.500Z,1028.17
2018-07-06T07:57:32.507Z,1028.17
2018-07-06T07:58:32.499Z,1028.12
2018-07-06T07:59:32.497Z,1028.11
2018-07-06T08:00:32.617Z,1028.07
2018-07-06T08:01:32.548Z,1028.03
2018-07-06T08:02:32.507Z,1028.07
2018-07-06T08:03:32.495Z,1028.14
2018-07-06T08:04:32.494Z,1028.19
2018-07-06T08:05:32.494Z,1028.22
2018-07-06T08:06:32.496Z,1028.22
2018-07-06T08:07:32.492Z,1028.23
2018-07-06T08:08:32.492Z,1028.27
2018-07-06T08:09:32.492Z,1028.29
2018-07-06T08:10:32.495Z,1028.28
2018-07-06T08:11:35.446Z,1028.32
2018-07-06T08:12:32.489Z,1028.32
2018-07-06T08:13:32.489Z,1028.36
2018-07-06T08:14:32.549Z,1028.39
2018-07-06T08:15:32.490Z,1028.44
2018-07-06T08:16:32.487Z,1028.39
2018-07-06T08:17:32.487Z,1028.37
2018-07-06T08:18:32.486Z,1028.39
2018-07-06T08:19:32.486Z,1028.36
2018-07-06T08:20:32.485Z,1028.29
2018-07-06T08:21:32.524Z,1028.13
2018-07-06T08:22:32.491Z,1028.01
2018-07-06T08:23:32.489Z,1027.85
2018-07-06T08:24:32.483Z,1027.8
2018-07-06T08:25:32.533Z,1027.74
2018-07-06T08:26:32.493Z,1027.7
2018-07-06T08:27:32.482Z,1027.68
2018-07-06T08:28:32.482Z,1027.67
2018-07-06T08:29:32.481Z,1027.64
2018-07-06T08:30:32.481Z,1027.49
2018-07-06T08:31:32.491Z,1027.5
2018-07-06T08:32:32.480Z,1027.42
2018-07-06T08:33:32.481Z,1027.35
2018-07-06T08:34:32.485Z,1027.24
2018-07-06T08:35:32.486Z,1027.18
2018-07-06T08:36:32.558Z,1027.06
2018-07-06T08:37:32.482Z,1026.9
2018-07-06T08:38:32.482Z,1026.91
2018-07-06T08:39:32.525Z,1026.81
2018-07-06T08:40:32.484Z,1026.8
2018-07-06T08:41:32.490Z,1026.76
2018-07-06T08:42:32.488Z,1026.77
2018-07-06T08:43:32.491Z,1026.75
2018-07-06T08:44:32.490Z,1026.71
2018-07-06T08:45:32.489Z,1026.81
2018-07-06T08:46:32.504Z,1026.95
2018-07-06T08:47:32.491Z,1026.97
2018-07-06T08:48:32.492Z,1026.96
2018-07-06T08:49:32.494Z,1026.89
2018-07-06T08:50:32.494Z,1026.88
2018-07-06T08:51:32.500Z,1026.93
2018-07-06T08:52:32.498Z,1026.98
2018-07-06T08:53:32.510Z,1027.06
2018-07-06T08:54:32.501Z,1027.05
2018-07-06T08:55:32.518Z,1027.1
2018-07-06T08:56:32.505Z,1027.12
2018-07-06T08:57:32.506Z,1027.06
2018-07-06T08:58:32.629Z,1027
2018-07-06T08:59:32.510Z,1026.97
2018-07-06T09:00:32.517Z,1026.8
2018-07-06T09:01:32.513Z,1026.7
2018-07-06T09:02:32.517Z,1026.63
2018-07-06T09:03:32.518Z,1026.66
2018-07-06T09:04:32.649Z,1026.67
2018-07-06T09:05:32.522Z,1026.71
2018-07-06T09:06:32.524Z,1026.81
2018-07-06T09:07:32.552Z,1026.8
2018-07-06T09:08:32.534Z,1026.88
2018-07-06T09:09:32.542Z,1026.93
2018-07-06T09:10:32.533Z,1027.01
2018-07-06T09:11:32.551Z,1027.04
2018-07-06T09:12:32.540Z,1027.17
2018-07-06T09:13:32.539Z,1027.21
2018-07-06T09:14:32.543Z,1027.21
2018-07-06T09:15:32.553Z,1027.22
2018-07-06T09:16:32.547Z,1027.23
2018-07-06T09:17:32.549Z,1027.21
2018-07-06T09:18:32.551Z,1027.24
2018-07-06T09:19:32.692Z,1027.21
2018-07-06T09:20:32.555Z,1027.2
2018-07-06T09:21:32.557Z,1027.17
2018-07-06T09:22:32.560Z,1027.11
2018-07-06T09:23:32.567Z,1026.93
2018-07-06T09:24:32.564Z,1026.8
2018-07-06T09:25:32.625Z,1026.73
2018-07-06T09:26:32.568Z,1026.71
2018-07-06T09:27:32.570Z,1026.72
2018-07-06T09:28:32.577Z,1026.66
2018-07-06T09:29:32.576Z,1026.57
2018-07-06T09:30:32.579Z,1026.6
2018-07-06T09:31:32.581Z,1026.55
2018-07-06T09:32:32.584Z,1026.6
2018-07-06T09:33:32.585Z,1026.66
2018-07-06T09:34:32.588Z,1026.75
2018-07-06T09:35:32.591Z,1026.79
2018-07-06T09:36:32.601Z,1026.86
2018-07-06T09:37:32.597Z,1026.92
2018-07-06T09:38:32.598Z,1026.9
2018-07-06T09:39:32.606Z,1026.81
2018-07-06T09:40:32.605Z,1026.78
2018-07-06T09:41:32.608Z,1026.68
2018-07-06T09:42:32.610Z,1026.62
2018-07-06T09:43:32.626Z,1026.54
2018-07-06T09:44:32.616Z,1026.45
2018-07-06T09:45:32.619Z,1026.32
2018-07-06T09:46:32.622Z,1026.18
2018-07-06T09:47:32.626Z,1026.26
2018-07-06T09:48:32.632Z,1026.31
2018-07-06T09:49:32.632Z,1026.43
2018-07-06T09:50:32.635Z,1026.52
2018-07-06T09:51:32.645Z,1026.63
2018-07-06T09:52:32.642Z,1026.77
2018-07-06T09:53:32.646Z,1026.85
2018-07-06T09:54:32.648Z,1026.88
2018-07-06T09:55:32.652Z,1026.89
2018-07-06T09:56:32.656Z,1026.83
2018-07-06T09:57:32.657Z,1026.82
2018-07-06T09:58:32.661Z,1026.79
2018-07-06T09:59:32.670Z,1026.73
2018-07-06T10:00:32.667Z,1026.64
2018-07-06T10:01:32.670Z,1026.58
2018-07-06T10:02:32.676Z,1026.55
2018-07-06T10:03:32.678Z,1026.52
2018-07-06T10:04:32.680Z,1026.55
2018-07-06T10:05:32.701Z,1026.55
2018-07-06T10:06:32.686Z,1026.63
2018-07-06T10:07:32.693Z,1026.62
2018-07-06T10:08:32.697Z,1026.58
2018-07-06T10:09:32.696Z,1026.55
2018-07-06T10:10:32.700Z,1026.57
2018-07-06T10:11:32.705Z,1026.56
2018-07-06T10:12:32.749Z,1026.55
2018-07-06T10:13:32.710Z,1026.56
2018-07-06T10:14:32.713Z,1026.63
2018-07-06T10:15:32.717Z,1026.55
2018-07-06T10:16:32.721Z,1026.59
2018-07-06T10:17:32.726Z,1026.57
2018-07-06T10:18:32.728Z,1026.58
2018-07-06T10:19:32.838Z,1026.72
2018-07-06T10:20:32.737Z,1026.76
2018-07-06T10:21:32.738Z,1026.83
2018-07-06T10:22:32.741Z,1026.89
2018-07-06T10:23:32.745Z,1026.87
2018-07-06T10:24:32.750Z,1026.84
2018-07-06T10:25:32.753Z,1026.82
2018-07-06T10:26:32.755Z,1026.8
2018-07-06T10:27:32.759Z,1026.77
2018-07-06T10:28:32.762Z,1026.84
2018-07-06T10:29:32.765Z,1026.93
2018-07-06T10:30:32.774Z,1027.01
2018-07-06T10:31:32.772Z,1027.02
2018-07-06T10:32:32.776Z,1027.03
2018-07-06T10:33:32.832Z,1027.06
2018-07-06T10:34:32.787Z,1027.15
2018-07-06T10:35:32.793Z,1027.21
2018-07-06T10:36:32.794Z,1027.24
2018-07-06T10:37:32.794Z,1027.3
2018-07-06T10:38:32.797Z,1027.37
2018-07-06T10:39:32.879Z,1027.44
2018-07-06T10:40:32.800Z,1027.51
2018-07-06T10:41:32.803Z,1027.55
2018-07-06T10:42:32.815Z,1027.58
2018-07-06T10:43:32.810Z,1027.62
2018-07-06T10:44:32.811Z,1027.56
2018-07-06T10:45:32.814Z,1027.56
2018-07-06T10:46:32.873Z,1027.46
2018-07-06T10:47:32.820Z,1027.49
2018-07-06T10:48:32.827Z,1027.44
2018-07-06T10:49:32.825Z,1027.54
2018-07-06T10:50:32.828Z,1027.51
2018-07-06T10:51:32.838Z,1027.56
2018-07-06T10:52:32.837Z,1027.6
2018-07-06T10:53:32.834Z,1027.61
2018-07-06T10:54:32.843Z,1027.64
2018-07-06T10:55:32.839Z,1027.69
2018-07-06T10:56:32.843Z,1027.66
2018-07-06T10:57:32.849Z,1027.72
2018-07-06T10:58:32.846Z,1027.69
2018-07-06T10:59:32.854Z,1027.69
2018-07-06T11:00:32.852Z,1027.68
2018-07-06T11:01:32.858Z,1027.67
2018-07-06T11:02:32.856Z,1027.68
2018-07-06T11:03:32.858Z,1027.67
2018-07-06T11:04:32.863Z,1027.74
2018-07-06T11:05:32.865Z,1027.69
2018-07-06T11:06:32.865Z,1027.6
2018-07-06T11:07:32.867Z,1027.53
2018-07-06T11:08:32.870Z,1027.56
2018-07-06T11:09:32.871Z,1027.57
2018-07-06T11:10:32.879Z,1027.6
2018-07-06T11:11:32.917Z,1027.62
2018-07-06T11:12:32.884Z,1027.62
2018-07-06T11:13:32.880Z,1027.67
2018-07-06T11:14:32.882Z,1027.74
2018-07-06T11:15:32.886Z,1027.75
2018-07-06T11:16:32.888Z,1027.75
2018-07-06T11:17:32.904Z,1027.75
2018-07-06T11:18:32.892Z,1027.72
2018-07-06T11:19:32.895Z,1027.6
2018-07-06T11:20:32.896Z,1027.62
2018-07-06T11:21:32.897Z,1027.59
2018-07-06T11:22:32.900Z,1027.54
2018-07-06T11:23:32.902Z,1027.46
2018-07-06T11:24:32.904Z,1027.45
2018-07-06T11:25:32.906Z,1027.43
2018-07-06T11:26:32.910Z,1027.41
2018-07-06T11:27:32.911Z,1027.46
2018-07-06T11:28:32.914Z,1027.51
2018-07-06T11:29:32.915Z,1027.66
2018-07-06T11:30:32.922Z,1027.69
2018-07-06T11:31:32.929Z,1027.73
2018-07-06T11:32:32.923Z,1027.78
2018-07-06T11:33:32.925Z,1027.8
2018-07-06T11:34:32.927Z,1027.74
2018-07-06T11:35:32.929Z,1027.67
2018-07-06T11:36:32.931Z,1027.65
2018-07-06T11:37:32.934Z,1027.65
2018-07-06T11:38:32.937Z,1027.51
2018-07-06T11:39:32.938Z,1027.49
2018-07-06T11:40:32.941Z,1027.45
2018-07-06T11:41:32.943Z,1027.43
2018-07-06T11:42:32.944Z,1027.41
2018-07-06T11:43:32.950Z,1027.42
2018-07-06T11:44:32.949Z,1027.31
2018-07-06T11:45:32.954Z,1027.34
2018-07-06T11:46:32.956Z,1027.27
2018-07-06T11:47:32.958Z,1027.26
2018-07-06T11:48:32.961Z,1027.37
2018-07-06T11:49:32.967Z,1027.39
2018-07-06T11:50:32.966Z,1027.41
2018-07-06T11:51:32.968Z,1027.4
2018-07-06T11:52:32.971Z,1027.42
2018-07-06T11:53:32.976Z,1027.44
2018-07-06T11:54:32.976Z,1027.31
2018-07-06T11:55:32.979Z,1027.24
2018-07-06T11:56:32.981Z,1027.15
2018-07-06T11:57:32.983Z,1027
2018-07-06T11:58:32.986Z,1026.88
2018-07-06T11:59:32.989Z,1026.76
2018-07-06T12:00:32.992Z,1026.7
2018-07-06T12:01:32.996Z,1026.66
2018-07-06T12:02:32.998Z,1026.61
2018-07-06T12:03:33.001Z,1026.65
2018-07-06T12:04:33.101Z,1026.74
2018-07-06T12:05:33.014Z,1026.73
2018-07-06T12:06:33.014Z,1026.78
2018-07-06T12:07:33.015Z,1026.88
2018-07-06T12:08:33.017Z,1026.9